createdAt,value
2018-06-03T00:00:08.684Z,0.00
2018-06-03T00:01:08.682Z,0.00
2018-06-03T00:02:08.695Z,0.00
2018-06-03T00:03:08.698Z,0.00
2018-06-03T00:04:08.711Z,0.00
2018-06-03T00:05:08.718Z,0.00
2018-06-03T00:06:08.721Z,0.00
2018-06-03T00:07:08.729Z,0.00
2018-06-03T00:08:08.736Z,0.00
2018-06-03T00:09:08.752Z,0.00
2018-06-03T00:10:08.764Z,0.00
2018-06-03T00:11:08.762Z,0.00
2018-06-03T00:12:08.769Z,0.00
2018-06-03T00:13:08.776Z,0.00
2018-06-03T00:14:08.791Z,0.00
2018-06-03T00:15:08.792Z,0.00
2018-06-03T00:16:08.798Z,0.00
2018-06-03T00:17:08.807Z,0.00
2018-06-03T00:18:08.811Z,0.00
2018-06-03T00:19:08.820Z,0.00
2018-06-03T00:20:08.832Z,0.00
2018-06-03T00:21:08.833Z,0.00
2018-06-03T00:22:08.841Z,0.00
2018-06-03T00:23:08.857Z,0.00
2018-06-03T00:24:08.858Z,0.00
2018-06-03T00:25:08.862Z,0.00
2018-06-03T00:26:08.929Z,0.00
2018-06-03T00:27:08.878Z,0.00
2018-06-03T00:28:08.884Z,0.00
2018-06-03T00:29:08.893Z,0.00
2018-06-03T00:30:08.899Z,0.00
2018-06-03T00:31:08.911Z,0.00
2018-06-03T00:32:08.923Z,0.00
2018-06-03T00:33:08.926Z,0.00
2018-06-03T00:34:08.951Z,0.00
2018-06-03T00:35:08.937Z,0.00
2018-06-03T00:36:08.944Z,0.00
2018-06-03T00:37:08.955Z,0.00
2018-06-03T00:38:08.955Z,0.00
2018-06-03T00:39:08.963Z,0.00
2018-06-03T00:40:08.974Z,0.00
2018-06-03T00:41:08.982Z,0.00
2018-06-03T00:42:08.987Z,0.00
2018-06-03T00:43:08.993Z,0.00
2018-06-03T00:44:09.015Z,0.00
2018-06-03T00:45:09.008Z,0.00
2018-06-03T00:46:09.017Z,0.00
2018-06-03T00:47:09.028Z,0.00
2018-06-03T00:48:09.030Z,0.00
2018-06-03T00:49:09.037Z,0.00
2018-06-03T00:50:09.047Z,0.00
2018-06-03T00:51:09.049Z,0.00
2018-06-03T00:52:09.064Z,0.00
2018-06-03T00:53:09.071Z,0.00
2018-06-03T00:54:09.076Z,0.00
2018-06-03T00:55:09.093Z,0.00
2018-06-03T00:56:09.090Z,0.00
2018-06-03T00:57:09.103Z,0.00
2018-06-03T00:58:09.108Z,0.00
2018-06-03T00:59:09.109Z,0.00
2018-06-03T01:00:09.114Z,0.00
2018-06-03T01:01:09.128Z,0.00
2018-06-03T01:02:09.136Z,0.00
2018-06-03T01:03:09.134Z,0.00
2018-06-03T01:04:09.144Z,0.00
2018-06-03T01:05:09.150Z,0.00
2018-06-03T01:06:09.156Z,0.00
2018-06-03T01:07:09.165Z,0.00
2018-06-03T01:08:09.176Z,0.00
2018-06-03T01:09:09.179Z,0.00
2018-06-03T01:10:09.190Z,0.00
2018-06-03T01:11:09.192Z,0.00
2018-06-03T01:12:09.205Z,0.00
2018-06-03T01:13:09.215Z,0.00
2018-06-03T01:14:09.213Z,0.00
2018-06-03T01:15:09.237Z,0.00
2018-06-03T01:16:09.229Z,0.00
2018-06-03T01:17:09.239Z,0.00
2018-06-03T01:18:09.244Z,0.00
2018-06-03T01:19:09.255Z,0.00
2018-06-03T01:20:09.255Z,0.00
2018-06-03T01:21:09.262Z,0.00
2018-06-03T01:22:09.272Z,0.00
2018-06-03T01:23:09.284Z,0.00
2018-06-03T01:24:09.284Z,0.00
2018-06-03T01:25:09.296Z,0.00
2018-06-03T01:26:09.305Z,0.00
2018-06-03T01:27:09.307Z,0.00
2018-06-03T01:28:09.322Z,0.00
2018-06-03T01:29:09.321Z,0.00
2018-06-03T01:30:09.324Z,0.00
2018-06-03T01:31:09.331Z,0.00
2018-06-03T01:32:09.344Z,0.00
2018-06-03T01:33:09.349Z,0.00
2018-06-03T01:34:09.354Z,0.00
2018-06-03T01:35:09.359Z,0.00
2018-06-03T01:36:09.371Z,0.00
2018-06-03T01:37:09.378Z,0.00
2018-06-03T01:38:09.380Z,0.00
2018-06-03T01:39:09.392Z,0.00
2018-06-03T01:40:09.402Z,0.00
2018-06-03T01:41:09.406Z,0.00
2018-06-03T01:42:09.433Z,0.00
2018-06-03T01:43:09.432Z,0.00
2018-06-03T01:44:09.423Z,0.00
2018-06-03T01:45:09.434Z,0.00
2018-06-03T01:46:09.436Z,0.00
2018-06-03T01:47:09.442Z,0.00
2018-06-03T01:48:09.460Z,0.00
2018-06-03T01:49:09.458Z,0.00
2018-06-03T01:50:09.466Z,0.00
2018-06-03T01:51:09.468Z,0.00
2018-06-03T01:52:09.480Z,0.00
2018-06-03T01:53:09.487Z,0.00
2018-06-03T01:54:09.491Z,0.00
2018-06-03T01:55:09.498Z,0.00
2018-06-03T01:56:09.505Z,0.00
2018-06-03T01:57:09.539Z,0.00
2018-06-03T01:58:09.518Z,0.00
2018-06-03T01:59:09.527Z,0.00
2018-06-03T02:00:09.541Z,0.00
2018-06-03T02:01:09.540Z,0.00
2018-06-03T02:02:09.555Z,0.00
2018-06-03T02:03:09.557Z,0.00
2018-06-03T02:04:09.558Z,0.00
2018-06-03T02:05:09.567Z,0.00
2018-06-03T02:06:09.579Z,0.00
2018-06-03T02:07:09.579Z,0.00
2018-06-03T02:08:09.587Z,0.00
2018-06-03T02:09:09.595Z,0.00
2018-06-03T02:10:09.609Z,0.00
2018-06-03T02:11:09.609Z,0.00
2018-06-03T02:12:09.614Z,0.00
2018-06-03T02:13:09.623Z,0.00
2018-06-03T02:14:09.637Z,0.00
2018-06-03T02:15:09.634Z,0.00
2018-06-03T02:16:09.646Z,0.00
2018-06-03T02:17:09.649Z,0.00
2018-06-03T02:18:09.656Z,0.00
2018-06-03T02:19:09.665Z,0.00
2018-06-03T02:20:09.669Z,0.00
2018-06-03T02:21:09.677Z,0.00
2018-06-03T02:22:09.682Z,0.00
2018-06-03T02:23:09.699Z,0.00
2018-06-03T02:24:09.695Z,0.00
2018-06-03T02:25:09.703Z,0.00
2018-06-03T02:26:09.709Z,0.00
2018-06-03T02:27:09.718Z,0.00
2018-06-03T02:28:09.722Z,0.00
2018-06-03T02:29:09.729Z,0.00
2018-06-03T02:30:09.742Z,0.00
2018-06-03T02:31:09.741Z,0.00
2018-06-03T02:32:09.753Z,0.00
2018-06-03T02:33:09.757Z,0.00
2018-06-03T02:34:09.763Z,0.00
2018-06-03T02:35:09.811Z,0.00
2018-06-03T02:36:09.778Z,0.00
2018-06-03T02:37:09.783Z,0.00
2018-06-03T02:38:09.790Z,0.00
2018-06-03T02:39:09.796Z,0.00
2018-06-03T02:40:09.802Z,0.00
2018-06-03T02:41:09.816Z,0.00
2018-06-03T02:42:09.819Z,0.00
2018-06-03T02:43:09.824Z,0.00
2018-06-03T02:44:09.832Z,0.00
2018-06-03T02:45:09.837Z,0.00
2018-06-03T02:46:09.843Z,0.00
2018-06-03T02:47:09.850Z,0.00
2018-06-03T02:48:09.876Z,0.00
2018-06-03T02:49:09.863Z,0.00
2018-06-03T02:50:09.869Z,0.00
2018-06-03T02:51:09.879Z,0.00
2018-06-03T02:52:09.883Z,0.00
2018-06-03T02:53:09.894Z,0.00
2018-06-03T02:54:09.894Z,4.00
2018-06-03T02:55:09.925Z,4.00
2018-06-03T02:56:09.914Z,0.00
2018-06-03T02:57:09.921Z,0.00
2018-06-03T02:58:09.926Z,4.00
2018-06-03T02:59:09.928Z,4.00
2018-06-03T03:00:09.937Z,4.00
2018-06-03T03:01:09.947Z,4.00
2018-06-03T03:02:09.949Z,8.00
2018-06-03T03:03:09.955Z,4.00
2018-06-03T03:04:09.961Z,8.00
2018-06-03T03:05:09.974Z,4.00
2018-06-03T03:06:09.977Z,4.00
2018-06-03T03:07:09.982Z,8.00
2018-06-03T03:08:09.988Z,8.00
2018-06-03T03:09:09.995Z,12.00
2018-06-03T03:10:10.001Z,12.00
2018-06-03T03:11:10.013Z,12.00
2018-06-03T03:12:10.017Z,12.00
2018-06-03T03:13:10.025Z,12.00
2018-06-03T03:14:10.027Z,12.00
2018-06-03T03:15:10.032Z,12.00
2018-06-03T03:16:10.066Z,12.00
2018-06-03T03:17:10.053Z,16.00
2018-06-03T03:18:10.055Z,16.00
2018-06-03T03:19:10.060Z,16.00
2018-06-03T03:20:10.068Z,16.00
2018-06-03T03:21:10.077Z,16.00
2018-06-03T03:22:10.080Z,20.00
2018-06-03T03:23:10.088Z,24.00
2018-06-03T03:24:10.094Z,24.00
2018-06-03T03:25:10.101Z,28.00
2018-06-03T03:26:10.105Z,28.00
2018-06-03T03:27:10.119Z,32.00
2018-06-03T03:28:10.123Z,36.00
2018-06-03T03:29:10.127Z,36.00
2018-06-03T03:30:10.131Z,44.00
2018-06-03T03:31:10.140Z,44.00
2018-06-03T03:32:10.144Z,52.00
2018-06-03T03:33:10.154Z,48.00
2018-06-03T03:34:10.159Z,52.00
2018-06-03T03:35:10.195Z,56.00
2018-06-03T03:36:10.174Z,64.00
2018-06-03T03:37:10.203Z,68.00
2018-06-03T03:38:10.185Z,72.00
2018-06-03T03:39:10.192Z,80.00
2018-06-03T03:40:10.197Z,84.00
2018-06-03T03:41:10.208Z,88.00
2018-06-03T03:42:10.212Z,92.00
2018-06-03T03:43:10.218Z,96.00
2018-06-03T03:44:10.225Z,104.00
2018-06-03T03:45:10.232Z,108.00
2018-06-03T03:46:10.244Z,116.00
2018-06-03T03:47:10.245Z,120.00
2018-06-03T03:48:10.250Z,128.00
2018-06-03T03:49:10.259Z,132.00
2018-06-03T03:50:10.263Z,140.00
2018-06-03T03:51:10.271Z,152.00
2018-06-03T03:52:10.281Z,160.00
2018-06-03T03:53:10.283Z,172.00
2018-06-03T03:54:10.291Z,180.00
2018-06-03T03:55:10.317Z,192.00
2018-06-03T03:56:10.307Z,200.00
2018-06-03T03:57:10.309Z,208.00
2018-06-03T03:58:10.320Z,220.00
2018-06-03T03:59:10.323Z,236.00
2018-06-03T04:00:10.335Z,256.00
2018-06-03T04:01:10.337Z,272.00
2018-06-03T04:02:10.342Z,296.00
2018-06-03T04:03:10.348Z,312.00
2018-06-03T04:04:10.359Z,320.00
2018-06-03T04:05:10.362Z,336.00
2018-06-03T04:06:10.372Z,352.00
2018-06-03T04:07:10.373Z,380.00
2018-06-03T04:08:10.381Z,400.00
2018-06-03T04:09:10.396Z,416.00
2018-06-03T04:10:10.397Z,444.00
2018-06-03T04:11:10.407Z,472.00
2018-06-03T04:12:10.419Z,492.00
2018-06-03T04:13:10.455Z,508.00
2018-06-03T04:14:10.421Z,524.00
2018-06-03T04:15:10.429Z,544.00
2018-06-03T04:16:10.434Z,564.00
2018-06-03T04:17:10.456Z,596.00
2018-06-03T04:18:10.447Z,632.00
2018-06-03T04:19:10.462Z,664.00
2018-06-03T04:20:10.461Z,692.00
2018-06-03T04:21:10.468Z,708.00
2018-06-03T04:22:10.472Z,728.00
2018-06-03T04:23:10.484Z,740.00
2018-06-03T04:24:10.487Z,748.00
2018-06-03T04:25:10.500Z,748.00
2018-06-03T04:26:10.499Z,744.00
2018-06-03T04:27:10.508Z,728.00
2018-06-03T04:28:10.515Z,708.00
2018-06-03T04:29:10.524Z,704.00
2018-06-03T04:30:10.527Z,692.00
2018-06-03T04:31:10.536Z,676.00
2018-06-03T04:32:10.547Z,664.00
2018-06-03T04:33:10.548Z,640.00
2018-06-03T04:34:10.553Z,624.00
2018-06-03T04:35:10.578Z,612.00
2018-06-03T04:36:10.573Z,604.00
2018-06-03T04:37:10.575Z,600.00
2018-06-03T04:38:10.586Z,592.00
2018-06-03T04:39:10.592Z,592.00
2018-06-03T04:40:10.596Z,596.00
2018-06-03T04:41:10.599Z,596.00
2018-06-03T04:42:10.612Z,604.00
2018-06-03T04:43:10.615Z,616.00
2018-06-03T04:44:10.621Z,632.00
2018-06-03T04:45:10.631Z,648.00
2018-06-03T04:46:10.644Z,664.00
2018-06-03T04:47:10.646Z,680.00
2018-06-03T04:48:10.652Z,696.00
2018-06-03T04:49:10.657Z,708.00
2018-06-03T04:50:10.669Z,704.00
2018-06-03T04:51:10.673Z,688.00
2018-06-03T04:52:10.675Z,684.00
2018-06-03T04:53:10.691Z,692.00
2018-06-03T04:54:10.698Z,704.00
2018-06-03T04:55:10.699Z,712.00
2018-06-03T04:56:10.704Z,712.00
2018-06-03T04:57:10.712Z,700.00
2018-06-03T04:58:10.721Z,692.00
2018-06-03T04:59:10.728Z,688.00
2018-06-03T05:00:10.736Z,688.00
2018-06-03T05:01:10.747Z,692.00
2018-06-03T05:02:10.748Z,684.00
2018-06-03T05:03:10.757Z,692.00
2018-06-03T05:04:10.761Z,732.00
2018-06-03T05:05:10.768Z,748.00
2018-06-03T05:06:10.788Z,756.00
2018-06-03T05:07:10.791Z,756.00
2018-06-03T05:08:10.788Z,752.00
2018-06-03T05:09:10.801Z,764.00
2018-06-03T05:10:10.802Z,764.00
2018-06-03T05:11:10.810Z,752.00
2018-06-03T05:12:10.818Z,756.00
2018-06-03T05:13:10.828Z,768.00
2018-06-03T05:14:10.831Z,772.00
2018-06-03T05:15:10.840Z,772.00
2018-06-03T05:16:10.849Z,776.00
2018-06-03T05:17:10.854Z,780.00
2018-06-03T05:18:10.863Z,776.00
2018-06-03T05:19:10.875Z,776.00
2018-06-03T05:20:10.877Z,776.00
2018-06-03T05:21:10.884Z,780.00
2018-06-03T05:22:10.887Z,784.00
2018-06-03T05:23:10.900Z,796.00
2018-06-03T05:24:10.906Z,800.00
2018-06-03T05:25:10.918Z,804.00
2018-06-03T05:26:10.920Z,808.00
2018-06-03T05:27:10.928Z,820.00
2018-06-03T05:28:10.934Z,832.00
2018-06-03T05:29:10.942Z,852.00
2018-06-03T05:30:10.955Z,868.00
2018-06-03T05:31:10.956Z,888.00
2018-06-03T05:32:10.973Z,908.00
2018-06-03T05:33:10.974Z,908.00
2018-06-03T05:34:10.977Z,892.00
2018-06-03T05:35:10.984Z,880.00
2018-06-03T05:36:10.993Z,848.00
2018-06-03T05:37:11.013Z,864.00
2018-06-03T05:38:11.015Z,860.00
2018-06-03T05:39:11.015Z,856.00
2018-06-03T05:40:11.023Z,860.00
2018-06-03T05:41:11.033Z,864.00
2018-06-03T05:42:11.047Z,860.00
2018-06-03T05:43:11.050Z,860.00
2018-06-03T05:44:11.053Z,860.00
2018-06-03T05:45:11.060Z,864.00
2018-06-03T05:46:11.067Z,864.00
2018-06-03T05:47:11.105Z,864.00
2018-06-03T05:48:11.091Z,864.00
2018-06-03T05:49:11.090Z,864.00
2018-06-03T05:50:11.100Z,864.00
2018-06-03T05:51:11.105Z,872.00
2018-06-03T05:52:11.117Z,876.00
2018-06-03T05:53:11.119Z,884.00
2018-06-03T05:54:11.143Z,888.00
2018-06-03T05:55:11.136Z,892.00
2018-06-03T05:56:11.145Z,896.00
2018-06-03T05:57:11.149Z,900.00
2018-06-03T05:58:11.169Z,900.00
2018-06-03T05:59:11.164Z,904.00
2018-06-03T06:00:11.175Z,908.00
2018-06-03T06:01:11.182Z,912.00
2018-06-03T06:02:11.188Z,916.00
2018-06-03T06:03:11.194Z,920.00
2018-06-03T06:04:11.205Z,924.00
2018-06-03T06:05:11.216Z,924.00
2018-06-03T06:06:11.230Z,928.00
2018-06-03T06:07:11.228Z,932.00
2018-06-03T06:08:11.236Z,932.00
2018-06-03T06:09:11.248Z,932.00
2018-06-03T06:10:11.251Z,944.00
2018-06-03T06:11:11.258Z,952.00
2018-06-03T06:12:11.270Z,964.00
2018-06-03T06:13:11.278Z,964.00
2018-06-03T06:14:11.287Z,964.00
2018-06-03T06:15:11.289Z,996.00
2018-06-03T06:16:11.299Z,1016.00
2018-06-03T06:17:11.315Z,1028.00
2018-06-03T06:18:11.316Z,1100.00
2018-06-03T06:19:11.329Z,1092.00
2018-06-03T06:20:11.382Z,1092.00
2018-06-03T06:21:11.337Z,1072.00
2018-06-03T06:22:11.352Z,1072.00
2018-06-03T06:23:11.358Z,1064.00
2018-06-03T06:24:11.361Z,1084.00
2018-06-03T06:25:11.371Z,1112.00
2018-06-03T06:26:11.383Z,1164.00
2018-06-03T06:27:11.389Z,1240.00
2018-06-03T06:28:11.396Z,1324.00
2018-06-03T06:29:11.405Z,1400.00
2018-06-03T06:30:11.407Z,1456.00
2018-06-03T06:31:11.419Z,1512.00
2018-06-03T06:32:11.428Z,1548.00
2018-06-03T06:33:11.433Z,1576.00
2018-06-03T06:34:11.444Z,1600.00
2018-06-03T06:35:11.452Z,1624.00
2018-06-03T06:36:11.465Z,1632.00
2018-06-03T06:37:11.468Z,1644.00
2018-06-03T06:38:11.476Z,1660.00
2018-06-03T06:39:11.484Z,1672.00
2018-06-03T06:40:11.492Z,1688.00
2018-06-03T06:41:11.501Z,1704.00
2018-06-03T06:42:11.514Z,1712.00
2018-06-03T06:43:11.521Z,1700.00
2018-06-03T06:44:11.526Z,1684.00
2018-06-03T06:45:11.535Z,1668.00
2018-06-03T06:46:11.565Z,1652.00
2018-06-03T06:47:11.553Z,1616.00
2018-06-03T06:48:11.564Z,1592.00
2018-06-03T06:49:11.571Z,1560.00
2018-06-03T06:50:11.580Z,1512.00
2018-06-03T06:51:11.595Z,1472.00
2018-06-03T06:52:11.597Z,1432.00
2018-06-03T06:53:11.637Z,1416.00
2018-06-03T06:54:11.616Z,1396.00
2018-06-03T06:55:11.624Z,1392.00
2018-06-03T06:56:11.633Z,1376.00
2018-06-03T06:57:11.647Z,1368.00
2018-06-03T06:58:11.651Z,1324.00
2018-06-03T06:59:11.660Z,1272.00
2018-06-03T07:00:11.682Z,1232.00
2018-06-03T07:01:11.679Z,1224.00
2018-06-03T07:02:11.688Z,1224.00
2018-06-03T07:03:11.704Z,1228.00
2018-06-03T07:04:11.731Z,1224.00
2018-06-03T07:05:11.716Z,1216.00
2018-06-03T07:06:11.722Z,1140.00
2018-06-03T07:07:11.735Z,1048.00
2018-06-03T07:08:11.750Z,1052.00
2018-06-03T07:09:11.756Z,908.00
2018-06-03T07:10:11.760Z,900.00
2018-06-03T07:11:11.768Z,900.00
2018-06-03T07:12:11.779Z,916.00
2018-06-03T07:13:11.846Z,940.00
2018-06-03T07:14:11.800Z,1088.00
2018-06-03T07:15:11.807Z,1216.00
2018-06-03T07:16:11.814Z,1244.00
2018-06-03T07:17:11.828Z,1248.00
2018-06-03T07:18:11.831Z,1228.00
2018-06-03T07:19:11.842Z,1220.00
2018-06-03T07:20:11.851Z,980.00
2018-06-03T07:21:11.862Z,888.00
2018-06-03T07:22:11.868Z,1160.00
2018-06-03T07:23:11.916Z,988.00
2018-06-03T07:24:11.893Z,1024.00
2018-06-03T07:25:11.897Z,1124.00
2018-06-03T07:26:11.911Z,1160.00
2018-06-03T07:27:11.914Z,1152.00
2018-06-03T07:28:11.927Z,968.00
2018-06-03T07:29:11.936Z,1092.00
2018-06-03T07:30:11.941Z,1196.00
2018-06-03T07:31:11.953Z,1244.00
2018-06-03T07:32:11.970Z,1312.00
2018-06-03T07:33:11.974Z,1340.00
2018-06-03T07:34:11.979Z,1364.00
2018-06-03T07:35:11.987Z,1248.00
2018-06-03T07:36:11.996Z,1172.00
2018-06-03T07:37:12.005Z,1160.00
2018-06-03T07:38:12.045Z,1184.00
2018-06-03T07:39:12.025Z,1124.00
2018-06-03T07:40:12.048Z,1260.00
2018-06-03T07:41:12.048Z,1108.00
2018-06-03T07:42:12.053Z,1096.00
2018-06-03T07:43:12.062Z,1128.00
2018-06-03T07:44:12.072Z,1080.00
2018-06-03T07:45:12.085Z,1052.00
2018-06-03T07:46:12.089Z,1064.00
2018-06-03T07:47:12.100Z,1016.00
2018-06-03T07:48:12.114Z,1000.00
2018-06-03T07:49:12.117Z,1028.00
2018-06-03T07:50:12.126Z,1160.00
2018-06-03T07:51:12.136Z,956.00
2018-06-03T07:52:12.146Z,928.00
2018-06-03T07:53:12.159Z,908.00
2018-06-03T07:54:12.162Z,904.00
2018-06-03T07:55:12.177Z,892.00
2018-06-03T07:56:12.180Z,884.00
2018-06-03T07:57:12.195Z,876.00
2018-06-03T07:58:12.197Z,872.00
2018-06-03T07:59:12.204Z,868.00
2018-06-03T08:00:12.216Z,884.00
2018-06-03T08:01:12.219Z,912.00
2018-06-03T08:02:12.248Z,904.00
2018-06-03T08:03:12.241Z,864.00
2018-06-03T08:04:12.249Z,860.00
2018-06-03T08:05:12.259Z,868.00
2018-06-03T08:06:12.274Z,876.00
2018-06-03T08:07:12.277Z,892.00
2018-06-03T08:08:12.295Z,912.00
2018-06-03T08:09:12.306Z,928.00
2018-06-03T08:10:12.306Z,948.00
2018-06-03T08:11:12.318Z,956.00
2018-06-03T08:12:12.327Z,1228.00
2018-06-03T08:13:12.335Z,1200.00
2018-06-03T08:14:12.342Z,1500.00
2018-06-03T08:15:12.352Z,1356.00
2018-06-03T08:16:12.368Z,1428.00
2018-06-03T08:17:12.410Z,1092.00
2018-06-03T08:18:12.380Z,1012.00
2018-06-03T08:19:12.388Z,1240.00
2018-06-03T08:20:12.396Z,1552.00
2018-06-03T08:21:12.405Z,1452.00
2018-06-03T08:22:12.415Z,1532.00
2018-06-03T08:23:12.425Z,1528.00
2018-06-03T08:24:12.432Z,1520.00
2018-06-03T08:25:12.451Z,1512.00
2018-06-03T08:26:12.456Z,1492.00
2018-06-03T08:27:12.459Z,1476.00
2018-06-03T08:28:12.470Z,1460.00
2018-06-03T08:29:12.486Z,1444.00
2018-06-03T08:30:12.490Z,1440.00
2018-06-03T08:31:12.496Z,1432.00
2018-06-03T08:32:12.507Z,1436.00
2018-06-03T08:33:12.518Z,1432.00
2018-06-03T08:34:12.528Z,1436.00
2018-06-03T08:35:12.539Z,1432.00
2018-06-03T08:36:12.547Z,1436.00
2018-06-03T08:37:12.560Z,1440.00
2018-06-03T08:38:12.567Z,1444.00
2018-06-03T08:39:12.649Z,1436.00
2018-06-03T08:40:12.588Z,1448.00
2018-06-03T08:41:12.602Z,1456.00
2018-06-03T08:42:12.600Z,1460.00
2018-06-03T08:43:12.616Z,1468.00
2018-06-03T08:44:12.623Z,1476.00
2018-06-03T08:45:12.633Z,1476.00
2018-06-03T08:46:12.657Z,1492.00
2018-06-03T08:47:12.653Z,1504.00
2018-06-03T08:48:12.661Z,1500.00
2018-06-03T08:49:12.709Z,1512.00
2018-06-03T08:50:12.679Z,1508.00
2018-06-03T08:51:12.691Z,1520.00
2018-06-03T08:52:12.726Z,1516.00
2018-06-03T08:53:12.714Z,1520.00
2018-06-03T08:54:12.721Z,1524.00
2018-06-03T08:55:12.734Z,1532.00
2018-06-03T08:56:12.745Z,1536.00
2018-06-03T08:57:12.751Z,1544.00
2018-06-03T08:58:12.768Z,1536.00
2018-06-03T08:59:12.773Z,1552.00
2018-06-03T09:00:12.787Z,1552.00
2018-06-03T09:01:12.792Z,1564.00
2018-06-03T09:02:12.802Z,1552.00
2018-06-03T09:03:12.816Z,1560.00
2018-06-03T09:04:12.829Z,1568.00
2018-06-03T09:05:12.837Z,1588.00
2018-06-03T09:06:12.852Z,1596.00
2018-06-03T09:07:12.859Z,1608.00
2018-06-03T09:08:12.874Z,1620.00
2018-06-03T09:09:12.882Z,1628.00
2018-06-03T09:10:12.884Z,1632.00
2018-06-03T09:11:12.907Z,1648.00
2018-06-03T09:12:12.911Z,1668.00
2018-06-03T09:13:12.918Z,1676.00
2018-06-03T09:14:12.927Z,1668.00
2018-06-03T09:15:12.945Z,1680.00
2018-06-03T09:16:12.991Z,1688.00
2018-06-03T09:17:12.959Z,1704.00
2018-06-03T09:18:12.969Z,1716.00
2018-06-03T09:19:12.981Z,1724.00
2018-06-03T09:20:12.992Z,1740.00
2018-06-03T09:21:13.006Z,1744.00
2018-06-03T09:22:13.013Z,1764.00
2018-06-03T09:23:13.024Z,1772.00
2018-06-03T09:24:13.039Z,1760.00
2018-06-03T09:25:13.088Z,1776.00
2018-06-03T09:26:13.055Z,1784.00
2018-06-03T09:27:13.089Z,1812.00
2018-06-03T09:28:13.079Z,1820.00
2018-06-03T09:29:13.088Z,1836.00
2018-06-03T09:30:13.100Z,1848.00
2018-06-03T09:31:13.110Z,1860.00
2018-06-03T09:32:13.120Z,1876.00
2018-06-03T09:33:13.138Z,1888.00
2018-06-03T09:34:13.143Z,1892.00
2018-06-03T09:35:13.163Z,1880.00
2018-06-03T09:36:13.169Z,1892.00
2018-06-03T09:37:13.180Z,1892.00
2018-06-03T09:38:13.191Z,1904.00
2018-06-03T09:39:13.201Z,1928.00
2018-06-03T09:40:13.208Z,1952.00
2018-06-03T09:41:13.239Z,1956.00
2018-06-03T09:42:13.231Z,1976.00
2018-06-03T09:43:13.247Z,1992.00
2018-06-03T09:44:13.259Z,2000.00
2018-06-03T09:45:13.270Z,2012.00
2018-06-03T09:46:13.273Z,1996.00
2018-06-03T09:47:13.294Z,2028.00
2018-06-03T09:48:13.308Z,2044.00
2018-06-03T09:49:13.307Z,2048.00
2018-06-03T09:50:13.325Z,2068.00
2018-06-03T09:51:13.335Z,2076.00
2018-06-03T09:52:13.345Z,2088.00
2018-06-03T09:53:13.497Z,2096.00
2018-06-03T09:54:13.375Z,2112.00
2018-06-03T09:55:13.377Z,2124.00
2018-06-03T09:56:13.392Z,2132.00
2018-06-03T09:57:13.403Z,2136.00
2018-06-03T09:58:13.413Z,2144.00
2018-06-03T09:59:13.430Z,2160.00
2018-06-03T10:00:13.435Z,2176.00
2018-06-03T10:01:13.452Z,2192.00
2018-06-03T10:02:13.461Z,2216.00
2018-06-03T10:03:13.472Z,2108.00
2018-06-03T10:04:13.481Z,2016.00
2018-06-03T10:05:13.489Z,2128.00
2018-06-03T10:06:13.505Z,2048.00
2018-06-03T10:07:13.514Z,2116.00
2018-06-03T10:08:13.528Z,1984.00
2018-06-03T10:09:13.547Z,2100.00
2018-06-03T10:10:13.576Z,2192.00
2018-06-03T10:11:13.567Z,2268.00
2018-06-03T10:12:13.580Z,2296.00
2018-06-03T10:13:13.589Z,2352.00
2018-06-03T10:14:13.604Z,2368.00
2018-06-03T10:15:13.617Z,2376.00
2018-06-03T10:16:13.665Z,2388.00
2018-06-03T10:17:13.634Z,2388.00
2018-06-03T10:18:13.648Z,2404.00
2018-06-03T10:19:13.658Z,2408.00
2018-06-03T10:20:13.677Z,2440.00
2018-06-03T10:21:13.680Z,2456.00
2018-06-03T10:22:13.699Z,2488.00
2018-06-03T10:23:13.716Z,2472.00
2018-06-03T10:24:13.719Z,2480.00
2018-06-03T10:25:13.727Z,2512.00
2018-06-03T10:26:13.739Z,2496.00
2018-06-03T10:27:13.751Z,2500.00
2018-06-03T10:28:13.764Z,2516.00
2018-06-03T10:29:13.777Z,2540.00
2018-06-03T10:30:13.788Z,2548.00
2018-06-03T10:31:13.801Z,2560.00
2018-06-03T10:32:13.813Z,2584.00
2018-06-03T10:33:13.828Z,2596.00
2018-06-03T10:34:13.836Z,2596.00
2018-06-03T10:35:13.848Z,2604.00
2018-06-03T10:36:13.865Z,2624.00
2018-06-03T10:37:13.879Z,2616.00
2018-06-03T10:38:13.893Z,2628.00
2018-06-03T10:39:13.897Z,2660.00
2018-06-03T10:40:13.912Z,2664.00
2018-06-03T10:41:13.922Z,2684.00
2018-06-03T10:42:13.933Z,2724.00
2018-06-03T10:43:13.947Z,2768.00
2018-06-03T10:44:13.965Z,2768.00
2018-06-03T10:45:13.977Z,2796.00
2018-06-03T10:46:13.981Z,2796.00
2018-06-03T10:47:13.994Z,2804.00
2018-06-03T10:48:14.016Z,2796.00
2018-06-03T10:49:14.026Z,2796.00
2018-06-03T10:50:14.031Z,2812.00
2018-06-03T10:51:14.048Z,2828.00
2018-06-03T10:52:14.058Z,2848.00
2018-06-03T10:53:14.073Z,2876.00
2018-06-03T10:54:14.120Z,2912.00
2018-06-03T10:55:14.096Z,2952.00
2018-06-03T10:56:14.116Z,2964.00
2018-06-03T10:57:14.156Z,2524.00
2018-06-03T10:58:14.134Z,2732.00
2018-06-03T10:59:14.152Z,2980.00
2018-06-03T11:00:14.160Z,3032.00
2018-06-03T11:01:14.172Z,3056.00
2018-06-03T11:02:14.183Z,3028.00
2018-06-03T11:03:14.199Z,3004.00
2018-06-03T11:04:14.213Z,3008.00
2018-06-03T11:05:14.223Z,2996.00
2018-06-03T11:06:14.237Z,2992.00
2018-06-03T11:07:14.253Z,3020.00
2018-06-03T11:08:14.262Z,3016.00
2018-06-03T11:09:14.281Z,2636.00
2018-06-03T11:10:14.288Z,3180.00
2018-06-03T11:11:14.299Z,2824.00
2018-06-03T11:12:14.313Z,2992.00
2018-06-03T11:13:14.328Z,3184.00
2018-06-03T11:14:14.340Z,3208.00
2018-06-03T11:15:14.358Z,3220.00
2018-06-03T11:16:14.365Z,3208.00
2018-06-03T11:17:14.378Z,3168.00
2018-06-03T11:18:14.389Z,3236.00
2018-06-03T11:19:14.406Z,3232.00
2018-06-03T11:20:14.420Z,3232.00
2018-06-03T11:21:14.433Z,3228.00
2018-06-03T11:22:14.450Z,3224.00
2018-06-03T11:23:14.454Z,3244.00
2018-06-03T11:24:14.469Z,3268.00
2018-06-03T11:25:14.483Z,3320.00
2018-06-03T11:26:14.494Z,3308.00
2018-06-03T11:27:14.509Z,3272.00
2018-06-03T11:28:14.522Z,3280.00
2018-06-03T11:29:14.536Z,3344.00
2018-06-03T11:30:14.549Z,1140.00
2018-06-03T11:31:14.567Z,1356.00
2018-06-03T11:32:14.574Z,2668.00
2018-06-03T11:33:14.589Z,3236.00
2018-06-03T11:34:14.603Z,2484.00
2018-06-03T11:35:14.616Z,2840.00
2018-06-03T11:36:14.627Z,3112.00
2018-06-03T11:37:14.641Z,3196.00
2018-06-03T11:38:14.655Z,3216.00
2018-06-03T11:39:14.673Z,3248.00
2018-06-03T11:40:14.685Z,3200.00
2018-06-03T11:41:14.692Z,3048.00
2018-06-03T11:42:14.709Z,3116.00
2018-06-03T11:43:14.720Z,3112.00
2018-06-03T11:44:14.745Z,2944.00
2018-06-03T11:45:14.754Z,3032.00
2018-06-03T11:46:14.764Z,2972.00
2018-06-03T11:47:14.776Z,3012.00
2018-06-03T11:48:14.788Z,2880.00
2018-06-03T11:49:14.814Z,2688.00
2018-06-03T11:50:14.816Z,2516.00
2018-06-03T11:51:14.830Z,2388.00
2018-06-03T11:52:14.840Z,2416.00
2018-06-03T11:53:14.856Z,2332.00
2018-06-03T11:54:14.872Z,2404.00
2018-06-03T11:55:14.883Z,2624.00
2018-06-03T11:56:14.896Z,2504.00
2018-06-03T11:57:14.908Z,2400.00
2018-06-03T11:58:14.930Z,2124.00
2018-06-03T11:59:14.933Z,2584.00
2018-06-03T12:00:14.947Z,2576.00
2018-06-03T12:01:14.963Z,2988.00
2018-06-03T12:02:14.976Z,3116.00
2018-06-03T12:03:14.989Z,3084.00
2018-06-03T12:04:15.002Z,2920.00
2018-06-03T12:05:15.017Z,2928.00
2018-06-03T12:06:15.026Z,2964.00
2018-06-03T12:07:15.039Z,3156.00
2018-06-03T12:08:15.106Z,3216.00
2018-06-03T12:09:15.083Z,3296.00
2018-06-03T12:10:15.082Z,3276.00
2018-06-03T12:11:15.093Z,3308.00
2018-06-03T12:12:15.107Z,3336.00
2018-06-03T12:13:15.121Z,2856.00
2018-06-03T12:14:15.144Z,2892.00
2018-06-03T12:15:15.150Z,2820.00
2018-06-03T12:16:15.159Z,2868.00
2018-06-03T12:17:15.172Z,2916.00
2018-06-03T12:18:15.186Z,2788.00
2018-06-03T12:19:15.202Z,2452.00
2018-06-03T12:20:15.215Z,2196.00
2018-06-03T12:21:15.226Z,2096.00
2018-06-03T12:22:15.242Z,2056.00
2018-06-03T12:23:15.256Z,2168.00
2018-06-03T12:24:15.267Z,2192.00
2018-06-03T12:25:15.282Z,2176.00
2018-06-03T12:26:15.293Z,2004.00
2018-06-03T12:27:15.310Z,1840.00
2018-06-03T12:28:15.323Z,1744.00
2018-06-03T12:29:15.334Z,2184.00
2018-06-03T12:30:15.351Z,2160.00